sensor_id;sensor_type;location;lat;lon;timestamp;P1;durP1;ratioP1;P2;durP2;ratioP2
62457;SDS011;48509;52.122;5.250;2022-07-23T00:00:12;5.0;;;2.31;;
62457;SDS011;48509;52.122;5.250;2022-07-23T00:01:59;4.1;;;2.1;;
62457;SDS011;48509;52.122;5.250;2022-07-23T00:05:31;4.1;;;2.1;;
62457;SDS011;48509;52.122;5.250;2022-07-23T00:07:18;3.4;;;2.0;;
62457;SDS011;48509;52.122;5.250;2022-07-23T00:09:04;4.41;;;2.4;;
62457;SDS011;48509;52.122;5.250;2022-07-23T00:10:51;3.8;;;1.9;;
62457;SDS011;48509;52.122;5.250;2022-07-23T00:12:37;4.91;;;2.31;;
62457;SDS011;48509;52.122;5.250;2022-07-23T00:16:11;4.41;;;2.31;;
62457;SDS011;48509;52.122;5.250;2022-07-23T00:17:57;2.9;;;2.0;;
62457;SDS011;48509;52.122;5.250;2022-07-23T00:19:43;4.7;;;2.1;;
62457;SDS011;48509;52.122;5.250;2022-07-23T00:21:31;3.8;;;2.21;;
62457;SDS011;48509;52.122;5.250;2022-07-23T00:23:17;3.3;;;2.21;;
62457;SDS011;48509;52.122;5.250;2022-07-23T00:25:03;5.5;;;2.5;;
62457;SDS011;48509;52.122;5.250;2022-07-23T00:28:36;3.1;;;2.4;;
62457;SDS011;48509;52.122;5.250;2022-07-23T00:30:22;3.4;;;2.21;;
62457;SDS011;48509;52.122;5.250;2022-07-23T00:32:10;4.3;;;2.1;;
62457;SDS011;48509;52.122;5.250;2022-07-23T00:33:56;3.8;;;2.21;;
62457;SDS011;48509;52.122;5.250;2022-07-23T00:35:43;3.9;;;2.6;;
62457;SDS011;48509;52.122;5.250;2022-07-23T00:37:30;4.1;;;2.31;;
62457;SDS011;48509;52.122;5.250;2022-07-23T00:41:04;2.8;;;2.1;;
62457;SDS011;48509;52.122;5.250;2022-07-23T00:42:51;2.31;;;2.1;;
62457;SDS011;48509;52.122;5.250;2022-07-23T00:44:37;4.2;;;1.8;;
62457;SDS011;48509;52.122;5.250;2022-07-23T00:46:25;2.21;;;2.0;;
62457;SDS011;48509;52.122;5.250;2022-07-23T00:48:11;2.7;;;2.0;;
62457;SDS011;48509;52.122;5.250;2022-07-23T00:51:45;3.6;;;2.21;;
62457;SDS011;48509;52.122;5.250;2022-07-23T00:53:32;4.5;;;2.0;;
62457;SDS011;48509;52.122;5.250;2022-07-23T00:55:18;2.8;;;2.31;;
62457;SDS011;48509;52.122;5.250;2022-07-23T00:57:04;3.2;;;2.5;;
62457;SDS011;48509;52.122;5.250;2022-07-23T00:58:51;3.9;;;2.6;;
62457;SDS011;48509;52.122;5.250;2022-07-23T01:00:37;2.7;;;2.21;;
62457;SDS011;48509;52.122;5.250;2022-07-23T01:04:10;2.6;;;2.4;;
62457;SDS011;48509;52.122;5.250;2022-07-23T01:05:57;3.8;;;2.1;;
62457;SDS011;48509;52.122;5.250;2022-07-23T01:07:45;5.3;;;3.0;;
62457;SDS011;48509;52.122;5.250;2022-07-23T01:09:31;3.0;;;2.21;;
62457;SDS011;48509;52.122;5.250;2022-07-23T01:11:19;3.9;;;2.4;;
62457;SDS011;48509;52.122;5.250;2022-07-23T01:13:07;5.11;;;2.5;;
62457;SDS011;48509;52.122;5.250;2022-07-23T01:16:44;3.3;;;2.7;;
62457;SDS011;48509;52.122;5.250;2022-07-23T01:18:32;6.3;;;2.8;;
62457;SDS011;48509;52.122;5.250;2022-07-23T01:20:20;5.9;;;3.2;;
62457;SDS011;48509;52.122;5.250;2022-07-23T01:22:07;3.0;;;2.7;;
62457;SDS011;48509;52.122;5.250;2022-07-23T01:23:54;4.2;;;2.1;;
62457;SDS011;48509;52.122;5.250;2022-07-23T01:25:46;6.7;;;2.7;;
62457;SDS011;48509;52.122;5.250;2022-07-23T01:29:21;5.8;;;2.7;;
62457;SDS011;48509;52.122;5.250;2022-07-23T01:31:07;3.1;;;2.5;;
62457;SDS011;48509;52.122;5.250;2022-07-23T01:32:54;3.3;;;2.5;;
62457;SDS011;48509;52.122;5.250;2022-07-23T01:34:40;3.9;;;2.31;;
62457;SDS011;48509;52.122;5.250;2022-07-23T01:36:27;3.6;;;2.6;;
62457;SDS011;48509;52.122;5.250;2022-07-23T01:38:14;3.5;;;2.8;;
62457;SDS011;48509;52.122;5.250;2022-07-23T01:41:49;3.5;;;2.9;;
62457;SDS011;48509;52.122;5.250;2022-07-23T01:43:35;3.6;;;3.1;;
62457;SDS011;48509;52.122;5.250;2022-07-23T01:45:21;3.4;;;2.7;;
62457;SDS011;48509;52.122;5.250;2022-07-23T01:47:08;4.7;;;2.9;;
62457;SDS011;48509;52.122;5.250;2022-07-23T01:48:54;2.9;;;2.21;;
62457;SDS011;48509;52.122;5.250;2022-07-23T01:52:27;4.7;;;3.1;;
62457;SDS011;48509;52.122;5.250;2022-07-23T01:54:13;3.1;;;2.8;;
62457;SDS011;48509;52.122;5.250;2022-07-23T01:55:59;3.9;;;2.0;;
62457;SDS011;48509;52.122;5.250;2022-07-23T01:57:46;3.4;;;2.6;;
62457;SDS011;48509;52.122;5.250;2022-07-23T01:59:33;3.2;;;2.21;;
62457;SDS011;48509;52.122;5.250;2022-07-23T02:01:20;3.7;;;2.6;;
62457;SDS011;48509;52.122;5.250;2022-07-23T02:04:54;2.7;;;2.1;;
62457;SDS011;48509;52.122;5.250;2022-07-23T02:06:40;2.5;;;2.31;;
62457;SDS011;48509;52.122;5.250;2022-07-23T02:08:26;5.5;;;3.3;;
62457;SDS011;48509;52.122;5.250;2022-07-23T02:10:12;3.2;;;2.9;;
62457;SDS011;48509;52.122;5.250;2022-07-23T02:11:59;3.4;;;2.8;;
62457;SDS011;48509;52.122;5.250;2022-07-23T02:13:45;3.2;;;2.9;;
62457;SDS011;48509;52.122;5.250;2022-07-23T02:17:18;5.0;;;3.0;;
62457;SDS011;48509;52.122;5.250;2022-07-23T02:19:04;4.7;;;3.5;;
62457;SDS011;48509;52.122;5.250;2022-07-23T02:20:50;3.9;;;3.5;;
62457;SDS011;48509;52.122;5.250;2022-07-23T02:22:38;4.41;;;3.3;;
62457;SDS011;48509;52.122;5.250;2022-07-23T02:24:25;4.5;;;3.8;;
62457;SDS011;48509;52.122;5.250;2022-07-23T02:27:57;4.41;;;3.4;;
62457;SDS011;48509;52.122;5.250;2022-07-23T02:29:43;4.91;;;3.2;;
62457;SDS011;48509;52.122;5.250;2022-07-23T02:31:30;5.7;;;3.1;;
62457;SDS011;48509;52.122;5.250;2022-07-23T02:33:18;4.5;;;3.3;;
62457;SDS011;48509;52.122;5.250;2022-07-23T02:35:04;5.9;;;4.0;;
62457;SDS011;48509;52.122;5.250;2022-07-23T02:36:52;4.61;;;3.8;;
62457;SDS011;48509;52.122;5.250;2022-07-23T02:40:25;4.0;;;2.9;;
62457;SDS011;48509;52.122;5.250;2022-07-23T02:42:11;4.1;;;3.4;;
62457;SDS011;48509;52.122;5.250;2022-07-23T02:43:58;3.2;;;2.9;;
62457;SDS011;48509;52.122;5.250;2022-07-23T02:45:44;3.6;;;2.8;;
62457;SDS011;48509;52.122;5.250;2022-07-23T02:47:31;4.5;;;3.1;;
62457;SDS011;48509;52.122;5.250;2022-07-23T02:49:18;5.6;;;2.9;;
62457;SDS011;48509;52.122;5.250;2022-07-23T02:52:51;5.3;;;3.1;;
62457;SDS011;48509;52.122;5.250;2022-07-23T02:54:39;3.4;;;2.9;;
62457;SDS011;48509;52.122;5.250;2022-07-23T02:56:25;8.31;;;2.9;;
62457;SDS011;48509;52.122;5.250;2022-07-23T02:58:11;5.5;;;3.4;;
62457;SDS011;48509;52.122;5.250;2022-07-23T02:59:57;4.1;;;3.4;;
62457;SDS011;48509;52.122;5.250;2022-07-23T03:03:30;4.61;;;3.3;;
62457;SDS011;48509;52.122;5.250;2022-07-23T03:05:17;3.6;;;2.8;;
62457;SDS011;48509;52.122;5.250;2022-07-23T03:07:03;4.41;;;3.0;;
62457;SDS011;48509;52.122;5.250;2022-07-23T03:08:49;4.91;;;4.0;;
62457;SDS011;48509;52.122;5.250;2022-07-23T03:10:35;5.0;;;3.1;;
62457;SDS011;48509;52.122;5.250;2022-07-23T03:12:21;4.2;;;2.7;;
62457;SDS011;48509;52.122;5.250;2022-07-23T03:15:54;4.91;;;3.7;;
62457;SDS011;48509;52.122;5.250;2022-07-23T03:17:40;5.2;;;3.9;;
62457;SDS011;48509;52.122;5.250;2022-07-23T03:19:26;6.7;;;3.9;;
62457;SDS011;48509;52.122;5.250;2022-07-23T03:21:12;4.8;;;3.8;;
62457;SDS011;48509;52.122;5.250;2022-07-23T03:22:59;3.5;;;3.2;;
62457;SDS011;48509;52.122;5.250;2022-07-23T03:26:48;4.2;;;3.8;;
62457;SDS011;48509;52.122;5.250;2022-07-23T03:28:34;3.6;;;3.1;;
62457;SDS011;48509;52.122;5.250;2022-07-23T03:30:20;5.2;;;3.2;;
62457;SDS011;48509;52.122;5.250;2022-07-23T03:32:07;3.2;;;2.9;;
62457;SDS011;48509;52.122;5.250;2022-07-23T03:33:54;2.21;;;2.1;;
62457;SDS011;48509;52.122;5.250;2022-07-23T03:38:07;3.5;;;2.6;;
62457;SDS011;48509;52.122;5.250;2022-07-23T03:39:53;5.11;;;2.21;;
62457;SDS011;48509;52.122;5.250;2022-07-23T03:41:39;4.2;;;2.5;;
62457;SDS011;48509;52.122;5.250;2022-07-23T03:45:11;3.1;;;2.8;;
62457;SDS011;48509;52.122;5.250;2022-07-23T03:46:59;3.0;;;2.7;;
62457;SDS011;48509;52.122;5.250;2022-07-23T03:48:46;4.3;;;2.8;;
62457;SDS011;48509;52.122;5.250;2022-07-23T03:50:32;4.7;;;2.9;;
62457;SDS011;48509;52.122;5.250;2022-07-23T03:52:19;7.2;;;3.2;;
62457;SDS011;48509;52.122;5.250;2022-07-23T03:55:52;4.2;;;3.3;;
62457;SDS011;48509;52.122;5.250;2022-07-23T03:57:39;3.5;;;2.6;;
62457;SDS011;48509;52.122;5.250;2022-07-23T03:59:26;4.3;;;2.8;;
62457;SDS011;48509;52.122;5.250;2022-07-23T04:01:12;4.1;;;2.7;;
62457;SDS011;48509;52.122;5.250;2022-07-23T04:02:59;3.1;;;2.8;;
62457;SDS011;48509;52.122;5.250;2022-07-23T04:04:46;4.5;;;2.9;;
62457;SDS011;48509;52.122;5.250;2022-07-23T04:08:21;4.8;;;3.3;;
62457;SDS011;48509;52.122;5.250;2022-07-23T04:10:08;3.3;;;3.0;;
62457;SDS011;48509;52.122;5.250;2022-07-23T04:11:55;3.6;;;2.9;;
62457;SDS011;48509;52.122;5.250;2022-07-23T04:13:41;3.0;;;2.6;;
62457;SDS011;48509;52.122;5.250;2022-07-23T04:15:27;3.0;;;2.7;;
62457;SDS011;48509;52.122;5.250;2022-07-23T04:17:14;3.6;;;3.1;;
62457;SDS011;48509;52.122;5.250;2022-07-23T04:20:48;3.4;;;2.8;;
62457;SDS011;48509;52.122;5.250;2022-07-23T04:22:34;3.8;;;2.6;;
62457;SDS011;48509;52.122;5.250;2022-07-23T04:24:20;3.5;;;2.7;;
62457;SDS011;48509;52.122;5.250;2022-07-23T04:26:06;3.1;;;2.4;;
62457;SDS011;48509;52.122;5.250;2022-07-23T04:27:53;3.7;;;3.1;;
62457;SDS011;48509;52.122;5.250;2022-07-23T04:31:25;4.61;;;3.4;;
62457;SDS011;48509;52.122;5.250;2022-07-23T04:33:11;4.41;;;3.3;;
62457;SDS011;48509;52.122;5.250;2022-07-23T04:34:58;3.3;;;3.0;;
62457;SDS011;48509;52.122;5.250;2022-07-23T04:36:45;3.9;;;3.3;;
62457;SDS011;48509;52.122;5.250;2022-07-23T04:38:32;3.5;;;2.9;;
62457;SDS011;48509;52.122;5.250;2022-07-23T04:40:19;3.0;;;2.8;;
62457;SDS011;48509;52.122;5.250;2022-07-23T04:43:52;3.0;;;2.31;;
62457;SDS011;48509;52.122;5.250;2022-07-23T04:45:38;2.8;;;2.6;;
62457;SDS011;48509;52.122;5.250;2022-07-23T04:47:25;3.0;;;2.7;;
62457;SDS011;48509;52.122;5.250;2022-07-23T04:49:12;2.6;;;2.4;;
62457;SDS011;48509;52.122;5.250;2022-07-23T04:50:58;4.5;;;3.0;;
62457;SDS011;48509;52.122;5.250;2022-07-23T04:52:45;3.3;;;2.5;;
62457;SDS011;48509;52.122;5.250;2022-07-23T04:56:18;3.2;;;2.5;;
62457;SDS011;48509;52.122;5.250;2022-07-23T04:58:04;2.9;;;2.4;;
62457;SDS011;48509;52.122;5.250;2022-07-23T04:59:50;3.3;;;2.31;;
62457;SDS011;48509;52.122;5.250;2022-07-23T05:01:37;2.5;;;2.31;;
62457;SDS011;48509;52.122;5.250;2022-07-23T05:03:23;2.6;;;2.4;;
62457;SDS011;48509;52.122;5.250;2022-07-23T05:06:56;3.0;;;2.7;;
62457;SDS011;48509;52.122;5.250;2022-07-23T05:08:43;3.4;;;3.0;;
62457;SDS011;48509;52.122;5.250;2022-07-23T05:10:29;5.0;;;2.9;;
62457;SDS011;48509;52.122;5.250;2022-07-23T05:12:16;3.0;;;2.7;;
62457;SDS011;48509;52.122;5.250;2022-07-23T05:14:04;2.5;;;2.31;;
62457;SDS011;48509;52.122;5.250;2022-07-23T05:15:50;3.7;;;3.2;;
62457;SDS011;48509;52.122;5.250;2022-07-23T05:19:23;4.5;;;2.8;;
62457;SDS011;48509;52.122;5.250;2022-07-23T05:21:09;3.0;;;2.6;;
62457;SDS011;48509;52.122;5.250;2022-07-23T05:22:56;3.1;;;2.8;;
62457;SDS011;48509;52.122;5.250;2022-07-23T05:24:43;3.2;;;2.7;;
62457;SDS011;48509;52.122;5.250;2022-07-23T05:26:29;2.7;;;2.5;;
62457;SDS011;48509;52.122;5.250;2022-07-23T05:28:15;3.4;;;2.4;;
62457;SDS011;48509;52.122;5.250;2022-07-23T05:31:49;2.6;;;2.4;;
62457;SDS011;48509;52.122;5.250;2022-07-23T05:33:35;3.5;;;2.8;;
62457;SDS011;48509;52.122;5.250;2022-07-23T05:35:21;3.9;;;3.2;;
62457;SDS011;48509;52.122;5.250;2022-07-23T05:37:07;3.1;;;2.8;;
62457;SDS011;48509;52.122;5.250;2022-07-23T05:38:53;3.0;;;2.1;;
62457;SDS011;48509;52.122;5.250;2022-07-23T05:42:26;3.1;;;2.7;;
62457;SDS011;48509;52.122;5.250;2022-07-23T05:44:12;2.7;;;2.4;;
62457;SDS011;48509;52.122;5.250;2022-07-23T05:45:58;3.2;;;2.9;;
62457;SDS011;48509;52.122;5.250;2022-07-23T05:47:45;4.3;;;3.8;;
62457;SDS011;48509;52.122;5.250;2022-07-23T05:49:34;3.2;;;2.9;;
62457;SDS011;48509;52.122;5.250;2022-07-23T05:51:23;4.7;;;3.2;;
62457;SDS011;48509;52.122;5.250;2022-07-23T05:54:59;4.1;;;2.9;;
62457;SDS011;48509;52.122;5.250;2022-07-23T05:56:46;4.5;;;2.9;;
62457;SDS011;48509;52.122;5.250;2022-07-23T05:58:32;4.2;;;3.3;;
62457;SDS011;48509;52.122;5.250;2022-07-23T06:00:18;3.5;;;2.9;;
62457;SDS011;48509;52.122;5.250;2022-07-23T06:02:05;3.7;;;2.7;;
62457;SDS011;48509;52.122;5.250;2022-07-23T06:03:51;3.3;;;2.6;;
62457;SDS011;48509;52.122;5.250;2022-07-23T06:07:23;4.7;;;2.9;;
62457;SDS011;48509;52.122;5.250;2022-07-23T06:09:11;3.9;;;3.0;;
62457;SDS011;48509;52.122;5.250;2022-07-23T06:10:57;4.3;;;3.1;;
62457;SDS011;48509;52.122;5.250;2022-07-23T06:12:44;3.5;;;2.5;;
62457;SDS011;48509;52.122;5.250;2022-07-23T06:14:32;3.5;;;3.1;;
62457;SDS011;48509;52.122;5.250;2022-07-23T06:16:22;3.1;;;2.6;;
62457;SDS011;48509;52.122;5.250;2022-07-23T06:19:54;5.8;;;3.2;;
62457;SDS011;48509;52.122;5.250;2022-07-23T06:21:41;4.3;;;3.0;;
62457;SDS011;48509;52.122;5.250;2022-07-23T06:23:29;2.9;;;2.21;;
62457;SDS011;48509;52.122;5.250;2022-07-23T06:25:16;5.4;;;2.21;;
62457;SDS011;48509;52.122;5.250;2022-07-23T06:27:02;3.0;;;2.4;;
62457;SDS011;48509;52.122;5.250;2022-07-23T06:30:35;3.0;;;2.31;;
62457;SDS011;48509;52.122;5.250;2022-07-23T06:32:21;3.0;;;2.31;;
62457;SDS011;48509;52.122;5.250;2022-07-23T06:34:08;3.3;;;1.8;;
62457;SDS011;48509;52.122;5.250;2022-07-23T06:35:54;3.0;;;2.1;;
62457;SDS011;48509;52.122;5.250;2022-07-23T06:37:40;3.3;;;2.1;;
62457;SDS011;48509;52.122;5.250;2022-07-23T06:39:26;2.9;;;1.6;;
62457;SDS011;48509;52.122;5.250;2022-07-23T06:42:59;2.9;;;1.7;;
62457;SDS011;48509;52.122;5.250;2022-07-23T06:44:45;3.1;;;1.6;;
62457;SDS011;48509;52.122;5.250;2022-07-23T06:46:31;2.6;;;1.6;;
62457;SDS011;48509;52.122;5.250;2022-07-23T06:48:18;3.5;;;1.7;;
62457;SDS011;48509;52.122;5.250;2022-07-23T06:50:05;2.7;;;1.5;;
62457;SDS011;48509;52.122;5.250;2022-07-23T06:53:38;5.5;;;1.6;;
62457;SDS011;48509;52.122;5.250;2022-07-23T06:55:24;4.0;;;1.6;;
62457;SDS011;48509;52.122;5.250;2022-07-23T06:57:10;3.3;;;1.6;;
62457;SDS011;48509;52.122;5.250;2022-07-23T06:58:57;2.9;;;1.3;;
62457;SDS011;48509;52.122;5.250;2022-07-23T07:00:43;5.2;;;1.2;;
62457;SDS011;48509;52.122;5.250;2022-07-23T07:02:29;4.7;;;1.3;;
62457;SDS011;48509;52.122;5.250;2022-07-23T07:06:03;3.6;;;1.2;;
62457;SDS011;48509;52.122;5.250;2022-07-23T07:07:49;1.9;;;1.11;;
62457;SDS011;48509;52.122;5.250;2022-07-23T07:09:35;3.6;;;1.3;;
62457;SDS011;48509;52.122;5.250;2022-07-23T07:11:21;1.8;;;1.2;;
62457;SDS011;48509;52.122;5.250;2022-07-23T07:13:07;2.8;;;1.3;;
62457;SDS011;48509;52.122;5.250;2022-07-23T07:16:41;3.2;;;1.4;;
62457;SDS011;48509;52.122;5.250;2022-07-23T07:18:28;1.6;;;1.0;;
62457;SDS011;48509;52.122;5.250;2022-07-23T07:20:14;2.6;;;1.4;;
62457;SDS011;48509;52.122;5.250;2022-07-23T07:22:01;2.21;;;1.3;;
62457;SDS011;48509;52.122;5.250;2022-07-23T07:23:48;5.0;;;1.3;;
62457;SDS011;48509;52.122;5.250;2022-07-23T07:25:34;3.8;;;1.3;;
62457;SDS011;48509;52.122;5.250;2022-07-23T07:29:08;5.0;;;1.5;;
62457;SDS011;48509;52.122;5.250;2022-07-23T07:30:54;2.5;;;1.11;;
62457;SDS011;48509;52.122;5.250;2022-07-23T07:32:40;5.9;;;1.6;;
62457;SDS011;48509;52.122;5.250;2022-07-23T07:34:28;3.7;;;1.4;;
62457;SDS011;48509;52.122;5.250;2022-07-23T07:36:14;4.0;;;1.2;;
62457;SDS011;48509;52.122;5.250;2022-07-23T07:38:01;2.5;;;1.3;;
62457;SDS011;48509;52.122;5.250;2022-07-23T07:43:21;3.7;;;1.5;;
62457;SDS011;48509;52.122;5.250;2022-07-23T07:45:07;2.21;;;1.11;;
62457;SDS011;48509;52.122;5.250;2022-07-23T07:46:54;2.7;;;1.2;;
62457;SDS011;48509;52.122;5.250;2022-07-23T07:48:40;3.5;;;1.3;;
62457;SDS011;48509;52.122;5.250;2022-07-23T07:52:13;2.6;;;1.2;;
62457;SDS011;48509;52.122;5.250;2022-07-23T07:54:00;2.31;;;1.2;;
62457;SDS011;48509;52.122;5.250;2022-07-23T07:55:47;2.21;;;1.2;;
62457;SDS011;48509;52.122;5.250;2022-07-23T07:57:33;3.2;;;1.3;;
62457;SDS011;48509;52.122;5.250;2022-07-23T07:59:20;3.3;;;1.4;;
62457;SDS011;48509;52.122;5.250;2022-07-23T08:01:07;4.0;;;1.3;;
62457;SDS011;48509;52.122;5.250;2022-07-23T08:04:40;2.6;;;1.0;;
62457;SDS011;48509;52.122;5.250;2022-07-23T08:06:26;2.8;;;1.11;;
62457;SDS011;48509;52.122;5.250;2022-07-23T08:08:14;1.6;;;1.11;;
62457;SDS011;48509;52.122;5.250;2022-07-23T08:10:01;2.1;;;1.3;;
62457;SDS011;48509;52.122;5.250;2022-07-23T08:11:48;3.2;;;1.6;;
62457;SDS011;48509;52.122;5.250;2022-07-23T08:17:11;2.7;;;1.4;;
62457;SDS011;48509;52.122;5.250;2022-07-23T08:18:58;2.8;;;1.2;;
62457;SDS011;48509;52.122;5.250;2022-07-23T08:20:44;1.9;;;1.2;;
62457;SDS011;48509;52.122;5.250;2022-07-23T08:22:46;3.2;;;1.3;;
62457;SDS011;48509;52.122;5.250;2022-07-23T08:24:37;2.5;;;1.2;;
62457;SDS011;48509;52.122;5.250;2022-07-23T08:26:23;2.7;;;1.11;;
62457;SDS011;48509;52.122;5.250;2022-07-23T08:28:10;3.0;;;1.2;;
62457;SDS011;48509;52.122;5.250;2022-07-23T08:31:45;2.0;;;1.2;;
62457;SDS011;48509;52.122;5.250;2022-07-23T08:33:32;2.9;;;1.2;;
62457;SDS011;48509;52.122;5.250;2022-07-23T08:35:21;2.21;;;1.0;;
62457;SDS011;48509;52.122;5.250;2022-07-23T08:37:09;2.31;;;1.4;;
62457;SDS011;48509;52.122;5.250;2022-07-23T08:38:55;3.0;;;1.3;;
62457;SDS011;48509;52.122;5.250;2022-07-23T08:42:31;1.4;;;0.9;;
62457;SDS011;48509;52.122;5.250;2022-07-23T08:44:19;2.5;;;1.11;;
62457;SDS011;48509;52.122;5.250;2022-07-23T08:46:05;2.31;;;1.2;;
62457;SDS011;48509;52.122;5.250;2022-07-23T08:47:52;4.61;;;1.4;;
62457;SDS011;48509;52.122;5.250;2022-07-23T08:49:41;1.6;;;1.0;;
62457;SDS011;48509;52.122;5.250;2022-07-23T08:51:28;1.7;;;1.0;;
62457;SDS011;48509;52.122;5.250;2022-07-23T08:55:02;3.3;;;1.0;;
62457;SDS011;48509;52.122;5.250;2022-07-23T08:56:50;2.0;;;1.0;;
62457;SDS011;48509;52.122;5.250;2022-07-23T08:58:37;2.31;;;1.0;;
62457;SDS011;48509;52.122;5.250;2022-07-23T09:00:24;4.3;;;1.2;;
62457;SDS011;48509;52.122;5.250;2022-07-23T09:02:11;3.6;;;1.3;;
62457;SDS011;48509;52.122;5.250;2022-07-23T09:03:58;1.7;;;1.0;;
62457;SDS011;48509;52.122;5.250;2022-07-23T09:07:32;3.4;;;1.11;;
62457;SDS011;48509;52.122;5.250;2022-07-23T09:09:19;1.11;;;0.9;;
62457;SDS011;48509;52.122;5.250;2022-07-23T09:11:09;3.1;;;1.11;;
62457;SDS011;48509;52.122;5.250;2022-07-23T09:12:57;1.11;;;1.0;;
62457;SDS011;48509;52.122;5.250;2022-07-23T09:14:46;3.0;;;1.11;;
62457;SDS011;48509;52.122;5.250;2022-07-23T09:16:33;1.3;;;0.9;;
62457;SDS011;48509;52.122;5.250;2022-07-23T09:20:15;2.0;;;1.0;;
62457;SDS011;48509;52.122;5.250;2022-07-23T09:22:20;1.6;;;1.11;;
62457;SDS011;48509;52.122;5.250;2022-07-23T09:24:08;2.9;;;1.0;;
62457;SDS011;48509;52.122;5.250;2022-07-23T09:25:56;5.2;;;1.11;;
62457;SDS011;48509;52.122;5.250;2022-07-23T09:27:51;3.1;;;1.2;;
62457;SDS011;48509;52.122;5.250;2022-07-23T09:29:40;2.7;;;1.11;;
62457;SDS011;48509;52.122;5.250;2022-07-23T09:31:43;4.0;;;1.3;;
62457;SDS011;48509;52.122;5.250;2022-07-23T09:33:32;3.5;;;1.2;;
62457;SDS011;48509;52.122;5.250;2022-07-23T09:35:19;4.61;;;1.4;;
62457;SDS011;48509;52.122;5.250;2022-07-23T09:38:56;3.0;;;1.2;;
62457;SDS011;48509;52.122;5.250;2022-07-23T09:40:43;1.5;;;1.0;;
62457;SDS011;48509;52.122;5.250;2022-07-23T09:42:30;1.5;;;1.11;;
62457;SDS011;48509;52.122;5.250;2022-07-23T09:44:19;1.8;;;1.0;;
62457;SDS011;48509;52.122;5.250;2022-07-23T09:46:23;1.7;;;0.8;;
62457;SDS011;48509;52.122;5.250;2022-07-23T09:48:12;2.0;;;1.11;;
62457;SDS011;48509;52.122;5.250;2022-07-23T09:50:01;1.8;;;1.11;;
62457;SDS011;48509;52.122;5.250;2022-07-23T09:53:40;3.9;;;1.11;;
62457;SDS011;48509;52.122;5.250;2022-07-23T09:55:30;2.8;;;1.2;;
62457;SDS011;48509;52.122;5.250;2022-07-23T09:57:17;2.6;;;1.2;;
62457;SDS011;48509;52.122;5.250;2022-07-23T09:59:04;3.2;;;1.3;;
62457;SDS011;48509;52.122;5.250;2022-07-23T10:00:52;1.4;;;1.11;;
62457;SDS011;48509;52.122;5.250;2022-07-23T10:02:40;1.4;;;0.9;;
62457;SDS011;48509;52.122;5.250;2022-07-23T10:04:27;1.2;;;0.9;;
62457;SDS011;48509;52.122;5.250;2022-07-23T10:08:02;3.8;;;1.3;;
62457;SDS011;48509;52.122;5.250;2022-07-23T10:09:50;1.0;;;0.9;;
62457;SDS011;48509;52.122;5.250;2022-07-23T10:11:38;1.5;;;1.11;;
62457;SDS011;48509;52.122;5.250;2022-07-23T10:13:50;3.3;;;1.0;;
62457;SDS011;48509;52.122;5.250;2022-07-23T10:15:45;2.5;;;1.11;;
62457;SDS011;48509;52.122;5.250;2022-07-23T10:17:33;2.4;;;1.11;;
62457;SDS011;48509;52.122;5.250;2022-07-23T10:19:20;1.3;;;1.0;;
62457;SDS011;48509;52.122;5.250;2022-07-23T10:21:08;2.0;;;1.0;;
62457;SDS011;48509;52.122;5.250;2022-07-23T10:24:53;3.7;;;1.11;;
62457;SDS011;48509;52.122;5.250;2022-07-23T10:26:51;2.31;;;1.2;;
62457;SDS011;48509;52.122;5.250;2022-07-23T10:29:01;3.1;;;1.11;;
62457;SDS011;48509;52.122;5.250;2022-07-23T10:31:00;2.6;;;1.2;;
62457;SDS011;48509;52.122;5.250;2022-07-23T10:32:57;3.1;;;1.0;;
62457;SDS011;48509;52.122;5.250;2022-07-23T10:35:04;2.31;;;1.11;;
62457;SDS011;48509;52.122;5.250;2022-07-23T10:37:05;3.1;;;1.0;;
62457;SDS011;48509;52.122;5.250;2022-07-23T10:39:03;2.6;;;0.9;;
62457;SDS011;48509;52.122;5.250;2022-07-23T10:40:59;2.1;;;1.11;;
62457;SDS011;48509;52.122;5.250;2022-07-23T10:42:47;1.7;;;1.0;;
62457;SDS011;48509;52.122;5.250;2022-07-23T10:44:38;3.3;;;1.11;;
62457;SDS011;48509;52.122;5.250;2022-07-23T10:46:29;3.7;;;1.11;;
62457;SDS011;48509;52.122;5.250;2022-07-23T10:50:17;3.5;;;1.0;;
62457;SDS011;48509;52.122;5.250;2022-07-23T10:52:18;2.5;;;1.0;;
62457;SDS011;48509;52.122;5.250;2022-07-23T10:54:19;1.3;;;0.9;;
62457;SDS011;48509;52.122;5.250;2022-07-23T10:56:07;4.2;;;1.3;;
62457;SDS011;48509;52.122;5.250;2022-07-23T10:57:53;1.6;;;0.9;;
62457;SDS011;48509;52.122;5.250;2022-07-23T11:02:33;1.4;;;1.0;;
62457;SDS011;48509;52.122;5.250;2022-07-23T11:04:22;1.8;;;1.0;;
62457;SDS011;48509;52.122;5.250;2022-07-23T11:07:07;1.6;;;1.2;;
62457;SDS011;48509;52.122;5.250;2022-07-23T11:09:24;2.8;;;1.3;;
62457;SDS011;48509;52.122;5.250;2022-07-23T11:13:10;2.7;;;1.2;;
62457;SDS011;48509;52.122;5.250;2022-07-23T11:15:15;1.7;;;1.2;;
62457;SDS011;48509;52.122;5.250;2022-07-23T11:17:02;3.6;;;1.2;;
62457;SDS011;48509;52.122;5.250;2022-07-23T11:19:06;1.7;;;1.11;;
62457;SDS011;48509;52.122;5.250;2022-07-23T11:20:53;1.6;;;0.9;;
62457;SDS011;48509;52.122;5.250;2022-07-23T11:22:40;1.2;;;1.11;;
62457;SDS011;48509;52.122;5.250;2022-07-23T11:24:35;2.4;;;1.2;;
62457;SDS011;48509;52.122;5.250;2022-07-23T11:26:44;1.9;;;1.3;;
62457;SDS011;48509;52.122;5.250;2022-07-23T11:28:54;2.4;;;1.2;;
62457;SDS011;48509;52.122;5.250;2022-07-23T11:30:42;2.9;;;1.2;;
62457;SDS011;48509;52.122;5.250;2022-07-23T11:32:31;1.11;;;1.0;;
62457;SDS011;48509;52.122;5.250;2022-07-23T11:34:24;1.5;;;1.11;;
62457;SDS011;48509;52.122;5.250;2022-07-23T11:38:03;1.8;;;1.2;;
62457;SDS011;48509;52.122;5.250;2022-07-23T11:39:52;5.2;;;1.2;;
62457;SDS011;48509;52.122;5.250;2022-07-23T11:41:43;3.0;;;1.3;;
62457;SDS011;48509;52.122;5.250;2022-07-23T11:43:30;1.6;;;1.2;;
62457;SDS011;48509;52.122;5.250;2022-07-23T11:45:16;4.61;;;1.4;;
62457;SDS011;48509;52.122;5.250;2022-07-23T11:47:04;2.0;;;1.3;;
62457;SDS011;48509;52.122;5.250;2022-07-23T11:50:48;1.8;;;1.3;;
62457;SDS011;48509;52.122;5.250;2022-07-23T11:52:35;2.21;;;1.6;;
62457;SDS011;48509;52.122;5.250;2022-07-23T11:54:22;2.1;;;1.4;;
62457;SDS011;48509;52.122;5.250;2022-07-23T11:56:09;2.21;;;1.5;;
62457;SDS011;48509;52.122;5.250;2022-07-23T11:57:57;1.9;;;1.4;;
62457;SDS011;48509;52.122;5.250;2022-07-23T11:59:46;2.0;;;1.11;;
62457;SDS011;48509;52.122;5.250;2022-07-23T12:01:37;1.7;;;1.3;;
62457;SDS011;48509;52.122;5.250;2022-07-23T12:05:11;3.1;;;1.3;;
62457;SDS011;48509;52.122;5.250;2022-07-23T12:06:59;2.9;;;1.2;;
62457;SDS011;48509;52.122;5.250;2022-07-23T12:08:46;2.1;;;1.4;;
62457;SDS011;48509;52.122;5.250;2022-07-23T12:10:34;2.1;;;1.4;;
62457;SDS011;48509;52.122;5.250;2022-07-23T12:12:22;1.6;;;1.3;;
62457;SDS011;48509;52.122;5.250;2022-07-23T12:14:09;1.7;;;1.2;;
62457;SDS011;48509;52.122;5.250;2022-07-23T12:17:43;3.7;;;1.0;;
62457;SDS011;48509;52.122;5.250;2022-07-23T12:19:32;4.0;;;1.2;;
62457;SDS011;48509;52.122;5.250;2022-07-23T12:21:18;2.4;;;1.3;;
62457;SDS011;48509;52.122;5.250;2022-07-23T12:23:06;1.7;;;1.2;;
62457;SDS011;48509;52.122;5.250;2022-07-23T12:24:55;3.0;;;1.2;;
62457;SDS011;48509;52.122;5.250;2022-07-23T12:27:07;1.5;;;1.4;;
62457;SDS011;48509;52.122;5.250;2022-07-23T12:28:53;1.3;;;1.2;;
62457;SDS011;48509;52.122;5.250;2022-07-23T12:32:29;2.8;;;1.7;;
62457;SDS011;48509;52.122;5.250;2022-07-23T12:34:15;2.5;;;1.5;;
62457;SDS011;48509;52.122;5.250;2022-07-23T12:36:04;2.8;;;1.5;;
62457;SDS011;48509;52.122;5.250;2022-07-23T12:37:59;2.21;;;1.5;;
62457;SDS011;48509;52.122;5.250;2022-07-23T12:39:48;1.9;;;1.4;;
62457;SDS011;48509;52.122;5.250;2022-07-23T12:41:50;3.9;;;1.7;;
62457;SDS011;48509;52.122;5.250;2022-07-23T12:43:38;2.8;;;1.5;;
62457;SDS011;48509;52.122;5.250;2022-07-23T12:47:28;4.5;;;1.6;;
62457;SDS011;48509;52.122;5.250;2022-07-23T12:49:23;1.8;;;1.5;;
62457;SDS011;48509;52.122;5.250;2022-07-23T12:51:14;2.7;;;1.6;;
62457;SDS011;48509;52.122;5.250;2022-07-23T12:53:03;2.31;;;1.4;;
62457;SDS011;48509;52.122;5.250;2022-07-23T12:54:53;2.9;;;1.6;;
62457;SDS011;48509;52.122;5.250;2022-07-23T12:56:40;1.6;;;1.5;;
62457;SDS011;48509;52.122;5.250;2022-07-23T12:58:47;2.0;;;1.4;;
62457;SDS011;48509;52.122;5.250;2022-07-23T13:00:53;2.4;;;1.4;;
62457;SDS011;48509;52.122;5.250;2022-07-23T13:03:19;2.1;;;1.5;;
62457;SDS011;48509;52.122;5.250;2022-07-23T13:05:07;3.6;;;1.5;;
62457;SDS011;48509;52.122;5.250;2022-07-23T13:06:53;1.9;;;1.3;;